createdAt,value
2023-03-14T00:00:00.806Z,69.12
2023-03-14T00:01:10.325Z,68.86
2023-03-14T00:02:12.286Z,69.29
2023-03-14T00:03:14.087Z,69.30
2023-03-14T00:04:15.893Z,69.45
2023-03-14T00:05:17.700Z,70.23
2023-03-14T00:06:19.606Z,69.84
2023-03-14T00:07:21.597Z,70.33
2023-03-14T00:08:23.306Z,70.07
2023-03-14T00:09:25.062Z,69.66
2023-03-14T00:10:26.836Z,70.09
2023-03-14T00:11:28.631Z,70.58
2023-03-14T00:12:30.499Z,70.19
2023-03-14T00:13:32.254Z,70.09
2023-03-14T00:14:34.163Z,70.09
2023-03-14T00:15:36.828Z,70.38
2023-03-14T00:16:38.716Z,70.71
2023-03-14T00:17:40.856Z,70.34
2023-03-14T00:18:42.793Z,70.47
2023-03-14T00:19:44.614Z,70.25
2023-03-14T00:20:46.425Z,70.32
2023-03-14T00:21:48.386Z,69.43
2023-03-14T00:22:50.114Z,69.41
2023-03-14T00:23:52.665Z,69.34
2023-03-14T00:24:54.502Z,70.58
2023-03-14T00:26:04.797Z,70.11
2023-03-14T00:27:06.606Z,70.35
2023-03-14T00:28:08.362Z,70.55
2023-03-14T00:29:10.094Z,70.98
2023-03-14T00:30:12.044Z,70.85
2023-03-14T00:31:16.684Z,70.53
2023-03-14T00:32:18.567Z,70.15
2023-03-14T00:33:21.845Z,70.16
2023-03-14T00:34:23.867Z,70.02
2023-03-14T00:35:25.738Z,70.84
2023-03-14T00:36:27.493Z,71.74
2023-03-14T00:37:29.343Z,71.21
2023-03-14T00:38:32.865Z,70.61
2023-03-14T00:39:34.728Z,70.38
2023-03-14T00:40:40.518Z,70.69
2023-03-14T00:41:42.273Z,70.53
2023-03-14T00:42:44.415Z,70.79
2023-03-14T00:43:46.908Z,70.77
2023-03-14T00:44:48.706Z,70.68
2023-03-14T00:45:54.098Z,70.67
2023-03-14T00:46:55.983Z,70.52
2023-03-14T00:47:57.917Z,70.79
2023-03-14T00:48:59.716Z,70.88
2023-03-14T00:50:01.496Z,70.86
2023-03-14T00:51:05.041Z,70.14
2023-03-14T00:52:06.787Z,69.95
2023-03-14T00:53:08.632Z,69.52
2023-03-14T00:54:10.651Z,69.32
2023-03-14T00:55:12.464Z,69.44
2023-03-14T00:56:14.585Z,69.08
2023-03-14T00:57:16.349Z,69.22
2023-03-14T00:58:19.452Z,69.33
2023-03-14T00:59:21.269Z,69.44
2023-03-14T01:00:23.317Z,69.70
2023-03-14T01:01:25.519Z,69.11
2023-03-14T01:02:27.426Z,68.82
2023-03-14T01:03:29.350Z,68.58
2023-03-14T01:04:31.192Z,68.47
2023-03-14T01:05:33.561Z,68.36
2023-03-14T01:06:35.585Z,68.30
2023-03-14T01:07:38.180Z,68.25
2023-03-14T01:08:40.455Z,67.98
2023-03-14T01:09:42.226Z,68.02
2023-03-14T01:10:44.222Z,67.97
2023-03-14T01:11:46.046Z,67.97
2023-03-14T01:12:48.036Z,68.21
2023-03-14T01:13:50.977Z,68.37
2023-03-14T01:14:52.742Z,68.46
2023-03-14T01:15:54.607Z,68.62
2023-03-14T01:16:56.586Z,68.67
2023-03-14T01:17:58.616Z,68.76
2023-03-14T01:19:00.444Z,68.67
2023-03-14T01:20:02.564Z,68.83
2023-03-14T01:21:10.334Z,69.14
2023-03-14T01:22:12.071Z,70.16
2023-03-14T01:23:13.864Z,70.46
2023-03-14T01:24:15.595Z,70.24
2023-03-14T01:25:18.251Z,70.17
2023-03-14T01:26:23.173Z,70.03
2023-03-14T01:27:24.957Z,69.91
2023-03-14T01:28:27.425Z,69.62
2023-03-14T01:29:29.369Z,69.29
2023-03-14T01:30:31.221Z,69.49
2023-03-14T01:31:33.158Z,69.14
2023-03-14T01:32:35.385Z,68.93
2023-03-14T01:33:37.897Z,68.86
2023-03-14T01:34:39.692Z,68.99
2023-03-14T01:35:41.610Z,69.22
2023-03-14T01:36:43.426Z,69.11
2023-03-14T01:37:45.446Z,69.21
2023-03-14T01:38:47.791Z,68.99
2023-03-14T01:39:49.566Z,69.32
2023-03-14T01:40:51.570Z,69.68
2023-03-14T01:41:53.392Z,70.39
2023-03-14T01:42:56.892Z,70.67
2023-03-14T01:43:59.018Z,71.04
2023-03-14T01:45:02.525Z,70.75
2023-03-14T01:46:07.041Z,70.32
2023-03-14T01:47:08.901Z,70.31
2023-03-14T01:48:10.688Z,70.44
2023-03-14T01:49:16.345Z,70.53
2023-03-14T01:50:18.162Z,70.60
2023-03-14T01:51:43.586Z,70.70
2023-03-14T01:52:51.622Z,71.07
2023-03-14T01:54:03.626Z,71.48
2023-03-14T01:55:10.545Z,71.42
2023-03-14T01:56:15.909Z,71.10
2023-03-14T01:57:24.677Z,71.04
2023-03-14T01:58:30.485Z,71.02
2023-03-14T01:59:33.872Z,70.87
2023-03-14T02:00:35.778Z,71.19
2023-03-14T02:01:40.507Z,70.97
2023-03-14T02:02:56.627Z,70.78
2023-03-14T02:04:02.595Z,70.68
2023-03-14T02:05:05.602Z,71.26
2023-03-14T02:06:09.597Z,71.77
2023-03-14T02:07:18.538Z,72.46
2023-03-14T02:08:22.512Z,72.13
2023-03-14T02:09:24.756Z,72.08
2023-03-14T02:10:33.226Z,71.88
2023-03-14T02:11:35.532Z,71.89
2023-03-14T02:12:37.998Z,71.62
2023-03-14T02:13:40.070Z,71.39
2023-03-14T02:14:42.440Z,71.48
2023-03-14T02:15:44.505Z,71.51
2023-03-14T02:16:46.712Z,71.32
2023-03-14T02:17:49.026Z,71.09
2023-03-14T02:18:51.033Z,70.85
2023-03-14T02:20:01.798Z,71.97
2023-03-14T02:21:21.110Z,71.99
2023-03-14T02:22:23.218Z,72.28
2023-03-14T02:23:46.330Z,72.15
2023-03-14T02:24:58.878Z,71.96
2023-03-14T02:26:36.387Z,72.33
2023-03-14T02:27:39.344Z,71.93
2023-03-14T02:28:41.146Z,71.72
2023-03-14T02:29:54.165Z,71.38
2023-03-14T02:30:55.952Z,71.11
2023-03-14T02:31:57.738Z,70.29
2023-03-14T02:33:07.837Z,70.41
2023-03-14T02:34:09.603Z,70.00
2023-03-14T02:35:15.365Z,69.71
2023-03-14T02:36:20.299Z,69.78
2023-03-14T02:37:26.808Z,69.93
2023-03-14T02:39:00.652Z,70.23
2023-03-14T02:40:18.021Z,70.09
2023-03-14T02:41:19.905Z,70.42
2023-03-14T02:42:22.817Z,70.94
2023-03-14T02:43:24.846Z,71.33
2023-03-14T02:44:26.679Z,71.43
2023-03-14T02:45:44.352Z,71.62
2023-03-14T02:46:46.303Z,71.54
2023-03-14T02:47:55.231Z,71.49
2023-03-14T02:49:03.015Z,71.02
2023-03-14T02:50:11.877Z,71.05
2023-03-14T02:51:15.348Z,70.80
2023-03-14T02:52:17.181Z,70.59
2023-03-14T02:53:24.863Z,70.47
2023-03-14T02:54:26.634Z,70.04
2023-03-14T02:55:28.425Z,69.92
2023-03-14T02:56:30.285Z,69.74
2023-03-14T02:57:32.184Z,69.83
2023-03-14T02:58:33.995Z,70.33
2023-03-14T02:59:35.764Z,70.51
2023-03-14T03:00:37.543Z,70.70
2023-03-14T03:01:39.482Z,71.47
2023-03-14T03:02:41.458Z,71.53
2023-03-14T03:03:43.350Z,71.63
2023-03-14T03:04:45.300Z,71.82
2023-03-14T03:05:55.765Z,71.78
2023-03-14T03:06:57.643Z,71.80
2023-03-14T03:07:59.719Z,72.50
2023-03-14T03:09:01.827Z,72.41
2023-03-14T03:10:04.392Z,72.33
2023-03-14T03:11:06.633Z,72.22
2023-03-14T03:12:08.457Z,72.01
2023-03-14T03:13:10.201Z,71.97
2023-03-14T03:14:12.028Z,72.02
2023-03-14T03:15:13.774Z,71.73
2023-03-14T03:16:15.849Z,71.70
2023-03-14T03:17:18.257Z,71.03
2023-03-14T03:18:20.085Z,71.27
2023-03-14T03:19:21.979Z,71.53
2023-03-14T03:20:23.822Z,72.37
2023-03-14T03:21:25.706Z,72.93
2023-03-14T03:22:27.492Z,73.17
2023-03-14T03:23:30.623Z,73.29
2023-03-14T03:24:32.353Z,73.22
2023-03-14T03:25:34.140Z,73.13
2023-03-14T03:26:37.000Z,73.18
2023-03-14T03:27:39.121Z,73.08
2023-03-14T03:28:40.894Z,73.15
2023-03-14T03:29:42.700Z,73.00
2023-03-14T03:30:45.471Z,73.11
2023-03-14T03:31:47.306Z,72.54
2023-03-14T03:32:49.718Z,72.16
2023-03-14T03:33:51.730Z,71.88
2023-03-14T03:34:53.927Z,71.99
2023-03-14T03:35:55.749Z,71.77
2023-03-14T03:36:58.587Z,71.52
2023-03-14T03:38:00.479Z,71.43
2023-03-14T03:39:02.235Z,70.96
2023-03-14T03:40:04.423Z,70.98
2023-03-14T03:41:08.019Z,70.88
2023-03-14T03:42:09.929Z,71.08
2023-03-14T03:43:11.859Z,71.32
2023-03-14T03:44:13.776Z,71.39
2023-03-14T03:45:15.614Z,71.47
2023-03-14T03:46:17.599Z,71.54
2023-03-14T03:47:19.525Z,71.61
2023-03-14T03:48:21.283Z,71.72
2023-03-14T03:49:23.626Z,72.28
2023-03-14T03:50:25.611Z,72.14
2023-03-14T03:51:28.310Z,71.97
2023-03-14T03:52:30.296Z,71.83
2023-03-14T03:53:33.809Z,71.71
2023-03-14T03:54:36.711Z,71.68
2023-03-14T03:55:38.725Z,72.03
2023-03-14T03:56:40.462Z,72.15
2023-03-14T03:57:42.249Z,71.85
2023-03-14T03:58:44.758Z,71.58
2023-03-14T03:59:46.574Z,71.55
2023-03-14T04:00:48.387Z,71.42
2023-03-14T04:01:50.267Z,71.32
2023-03-14T04:02:52.502Z,71.30
2023-03-14T04:03:54.612Z,71.33
2023-03-14T04:04:56.590Z,70.90
2023-03-14T04:06:08.028Z,70.85
2023-03-14T04:07:09.829Z,71.06
2023-03-14T04:08:11.620Z,71.25
2023-03-14T04:09:13.674Z,70.69
2023-03-14T04:10:16.237Z,70.52
2023-03-14T04:11:18.327Z,70.63
2023-03-14T04:12:20.260Z,70.98
2023-03-14T04:13:22.094Z,70.62
2023-03-14T04:14:24.122Z,70.30
2023-03-14T04:15:25.931Z,70.08
2023-03-14T04:16:27.919Z,69.89
2023-03-14T04:17:29.605Z,69.63
2023-03-14T04:18:31.425Z,69.74
2023-03-14T04:19:33.359Z,69.95
2023-03-14T04:20:36.261Z,70.00
2023-03-14T04:21:38.265Z,70.44
2023-03-14T04:22:40.725Z,70.74
2023-03-14T04:23:43.355Z,70.73
2023-03-14T04:24:45.267Z,71.24
2023-03-14T04:25:47.312Z,71.22
2023-03-14T04:26:49.168Z,71.29
2023-03-14T04:27:53.330Z,71.19
2023-03-14T04:28:55.321Z,71.35
2023-03-14T04:29:57.132Z,71.56
2023-03-14T04:30:59.284Z,71.13
2023-03-14T04:32:01.061Z,71.63
2023-03-14T04:33:03.072Z,71.47
2023-03-14T04:34:04.879Z,71.41
2023-03-14T04:35:07.381Z,71.37
2023-03-14T04:36:10.394Z,71.38
2023-03-14T04:37:12.233Z,71.45
2023-03-14T04:38:14.896Z,71.43
2023-03-14T04:39:16.682Z,71.38
2023-03-14T04:40:19.309Z,71.56
2023-03-14T04:41:21.205Z,72.46
2023-03-14T04:42:23.028Z,72.66
2023-03-14T04:43:24.863Z,72.65
2023-03-14T04:44:26.813Z,72.60
2023-03-14T04:45:28.605Z,72.65
2023-03-14T04:46:30.564Z,72.40
2023-03-14T04:47:32.396Z,72.41
2023-03-14T04:48:34.186Z,72.21
2023-03-14T04:49:35.985Z,71.64
2023-03-14T04:50:37.756Z,71.73
2023-03-14T04:51:39.531Z,71.27
2023-03-14T04:52:41.565Z,71.41
2023-03-14T04:53:43.405Z,71.65
2023-03-14T04:54:45.357Z,71.86
2023-03-14T04:55:52.045Z,71.57
2023-03-14T04:56:53.884Z,71.21
2023-03-14T04:57:55.918Z,71.29
2023-03-14T04:58:57.685Z,71.58
2023-03-14T04:59:59.480Z,71.73
2023-03-14T05:01:05.339Z,71.58
2023-03-14T05:02:07.400Z,71.15
2023-03-14T05:03:09.226Z,70.71
2023-03-14T05:04:11.126Z,70.00
2023-03-14T05:05:13.212Z,69.81
2023-03-14T05:06:15.212Z,69.69
2023-03-14T05:07:17.083Z,69.79
2023-03-14T05:08:18.942Z,69.88
2023-03-14T05:09:20.749Z,70.43
2023-03-14T05:10:22.585Z,71.13
2023-03-14T05:11:24.348Z,70.78
2023-03-14T05:12:26.158Z,70.97
2023-03-14T05:13:27.911Z,71.17
2023-03-14T05:14:29.721Z,71.44
2023-03-14T05:15:31.636Z,71.19
2023-03-14T05:16:33.716Z,70.81
2023-03-14T05:17:36.198Z,70.47
2023-03-14T05:18:38.853Z,70.05
2023-03-14T05:19:41.249Z,69.95
2023-03-14T05:20:43.142Z,69.47
2023-03-14T05:21:44.858Z,69.26
2023-03-14T05:22:46.701Z,69.09
2023-03-14T05:23:48.475Z,68.91
2023-03-14T05:24:50.396Z,68.95
2023-03-14T05:25:52.153Z,68.69
2023-03-14T05:26:54.632Z,68.54
2023-03-14T05:27:56.901Z,69.02
2023-03-14T05:28:58.831Z,68.62
2023-03-14T05:30:00.645Z,68.46
2023-03-14T05:31:02.496Z,68.46
2023-03-14T05:32:04.288Z,68.38
2023-03-14T05:33:06.070Z,68.29
2023-03-14T05:34:07.872Z,68.06
2023-03-14T05:35:10.918Z,68.00
2023-03-14T05:36:13.198Z,68.16
2023-03-14T05:37:15.016Z,68.05
2023-03-14T05:38:16.794Z,68.43
2023-03-14T05:39:18.758Z,69.06
2023-03-14T05:40:20.635Z,69.20
2023-03-14T05:41:22.688Z,68.92
2023-03-14T05:42:24.450Z,69.60
2023-03-14T05:43:26.267Z,69.40
2023-03-14T05:44:28.060Z,69.44
2023-03-14T05:45:29.987Z,69.48
2023-03-14T05:46:31.938Z,69.55
2023-03-14T05:47:33.770Z,69.72
2023-03-14T05:48:35.549Z,69.56
2023-03-14T05:49:37.298Z,69.67
2023-03-14T05:50:39.563Z,70.12
2023-03-14T05:51:41.365Z,69.70
2023-03-14T05:52:43.147Z,70.03
2023-03-14T05:53:44.856Z,69.68
2023-03-14T05:54:46.704Z,69.24
2023-03-14T05:55:48.536Z,68.84
2023-03-14T05:56:50.285Z,68.88
2023-03-14T05:57:52.121Z,68.92
2023-03-14T05:58:53.949Z,69.26
2023-03-14T05:59:55.933Z,69.27
2023-03-14T06:00:57.779Z,69.59
2023-03-14T06:01:59.806Z,70.14
2023-03-14T06:03:01.727Z,70.23
2023-03-14T06:04:03.616Z,70.05
2023-03-14T06:05:06.162Z,70.37
2023-03-14T06:06:08.188Z,70.35
2023-03-14T06:07:10.048Z,70.51
2023-03-14T06:08:11.790Z,70.69
2023-03-14T06:09:13.540Z,70.43
2023-03-14T06:10:15.438Z,70.78
2023-03-14T06:11:17.260Z,71.15
2023-03-14T06:12:19.057Z,71.69
2023-03-14T06:13:20.979Z,71.89
2023-03-14T06:14:22.689Z,72.08
2023-03-14T06:15:24.430Z,71.54
2023-03-14T06:16:26.329Z,71.29
2023-03-14T06:17:28.199Z,71.91
2023-03-14T06:18:29.956Z,72.12
2023-03-14T06:19:31.874Z,72.62
2023-03-14T06:20:33.958Z,72.47
2023-03-14T06:21:35.776Z,72.29
2023-03-14T06:22:37.552Z,71.47
2023-03-14T06:23:39.419Z,71.11
2023-03-14T06:24:41.241Z,71.43
2023-03-14T06:25:42.986Z,71.25
2023-03-14T06:26:44.796Z,71.47
2023-03-14T06:27:46.787Z,71.54
2023-03-14T06:28:48.515Z,71.02
2023-03-14T06:29:50.309Z,70.91
2023-03-14T06:30:52.063Z,70.76
2023-03-14T06:31:53.882Z,69.02
2023-03-14T06:32:56.156Z,68.52
2023-03-14T06:33:58.028Z,68.98
2023-03-14T06:34:59.790Z,69.37
2023-03-14T06:36:01.646Z,69.32
2023-03-14T06:37:03.547Z,69.26
2023-03-14T06:38:05.456Z,69.45
2023-03-14T06:39:07.301Z,68.46
2023-03-14T06:40:11.297Z,68.18
2023-03-14T06:41:13.086Z,66.42
2023-03-14T06:42:14.898Z,66.45
2023-03-14T06:43:16.722Z,66.66
2023-03-14T06:44:18.568Z,66.28
2023-03-14T06:45:20.462Z,65.79
2023-03-14T06:46:22.302Z,65.66
2023-03-14T06:47:24.104Z,64.30
2023-03-14T06:48:25.937Z,62.69
2023-03-14T06:49:27.867Z,62.45
2023-03-14T06:50:29.784Z,61.90
2023-03-14T06:51:31.542Z,60.53
2023-03-14T06:52:33.577Z,60.81
2023-03-14T06:53:35.520Z,60.48
2023-03-14T06:54:37.355Z,60.02
2023-03-14T06:55:39.175Z,59.82
2023-03-14T06:56:40.890Z,60.96
2023-03-14T06:57:42.701Z,60.27
2023-03-14T06:58:44.501Z,60.80
2023-03-14T06:59:46.247Z,60.11
2023-03-14T07:00:48.094Z,60.14
2023-03-14T07:01:49.858Z,60.20
2023-03-14T07:02:51.685Z,59.98
2023-03-14T07:03:53.465Z,60.15
2023-03-14T07:04:55.275Z,60.25
2023-03-14T07:05:57.174Z,60.22
2023-03-14T07:06:59.003Z,59.05
2023-03-14T07:08:00.791Z,59.33
2023-03-14T07:09:03.807Z,58.06
2023-03-14T07:10:06.668Z,57.45
2023-03-14T07:11:08.674Z,58.08
2023-03-14T07:12:10.519Z,58.32
2023-03-14T07:13:12.278Z,58.81
2023-03-14T07:14:14.248Z,58.11
2023-03-14T07:15:19.086Z,58.20
2023-03-14T07:16:21.572Z,57.48
2023-03-14T07:17:23.361Z,57.23
2023-03-14T07:18:25.160Z,58.07
2023-03-14T07:19:26.965Z,57.55
2023-03-14T07:20:28.748Z,57.14
2023-03-14T07:21:30.698Z,57.65
2023-03-14T07:22:32.511Z,56.39
2023-03-14T07:23:35.048Z,56.99
2023-03-14T07:24:37.016Z,57.20
2023-03-14T07:25:38.965Z,58.26
2023-03-14T07:26:40.835Z,57.79
2023-03-14T07:27:45.567Z,57.39
2023-03-14T07:28:47.492Z,53.75
2023-03-14T07:29:49.308Z,53.46
2023-03-14T07:30:51.304Z,53.59
2023-03-14T07:31:53.296Z,53.80
2023-03-14T07:32:55.312Z,54.29
2023-03-14T07:33:57.440Z,54.65
2023-03-14T07:34:59.244Z,53.87
2023-03-14T07:36:01.614Z,52.26
2023-03-14T07:37:03.444Z,52.58
2023-03-14T07:38:05.302Z,52.09
2023-03-14T07:39:07.196Z,52.21
2023-03-14T07:40:09.896Z,51.38
2023-03-14T07:41:11.843Z,50.49
2023-03-14T07:42:13.709Z,50.70
2023-03-14T07:43:15.737Z,50.91
2023-03-14T07:44:17.646Z,51.19
2023-03-14T07:45:19.431Z,50.76
2023-03-14T07:46:21.441Z,51.09
2023-03-14T07:47:23.434Z,49.75
2023-03-14T07:48:25.748Z,48.99
2023-03-14T07:49:27.581Z,49.28
2023-03-14T07:50:29.479Z,50.62
2023-03-14T07:51:31.226Z,49.22
2023-03-14T07:52:33.206Z,47.93
2023-03-14T07:53:35.097Z,47.90
2023-03-14T07:54:36.943Z,48.02
2023-03-14T07:55:40.630Z,47.45
2023-03-14T07:56:42.383Z,47.12
2023-03-14T07:57:44.405Z,46.63
2023-03-14T07:58:46.433Z,46.99
2023-03-14T07:59:48.437Z,46.94
2023-03-14T08:00:51.291Z,47.43
2023-03-14T08:01:53.082Z,47.37
2023-03-14T08:02:54.871Z,46.15
2023-03-14T08:03:56.735Z,45.14
2023-03-14T08:04:58.782Z,45.46
2023-03-14T08:06:00.626Z,45.48
2023-03-14T08:07:02.564Z,45.20
2023-03-14T08:08:06.087Z,45.30
2023-03-14T08:09:07.993Z,46.82
2023-03-14T08:10:10.767Z,46.60
2023-03-14T08:11:12.563Z,46.66
2023-03-14T08:12:14.319Z,45.36
2023-03-14T08:13:16.388Z,46.09
2023-03-14T08:14:18.439Z,46.41
2023-03-14T08:15:20.480Z,45.27
2023-03-14T08:16:23.368Z,46.20
2023-03-14T08:18:02.330Z,45.10
2023-03-14T08:19:04.558Z,44.90
2023-03-14T08:20:07.352Z,43.26
2023-03-14T08:21:09.440Z,43.48
2023-03-14T08:22:11.362Z,44.04
2023-03-14T08:23:13.528Z,43.08
2023-03-14T08:24:15.583Z,42.48
2023-03-14T08:25:17.955Z,42.42
2023-03-14T08:26:19.764Z,43.81
2023-03-14T08:27:21.685Z,43.37
2023-03-14T08:28:23.597Z,44.03
2023-03-14T08:29:25.753Z,44.37
2023-03-14T08:30:27.600Z,42.89
2023-03-14T08:31:29.431Z,42.42
2023-03-14T08:32:31.451Z,42.68
2023-03-14T08:33:33.403Z,41.21
2023-03-14T08:34:35.484Z,41.71
2023-03-14T08:35:39.678Z,41.58
2023-03-14T08:36:42.001Z,40.60
2023-03-14T08:37:44.346Z,41.10
2023-03-14T08:38:46.398Z,40.98
2023-03-14T08:39:48.528Z,41.44
2023-03-14T08:40:50.474Z,41.81
2023-03-14T08:41:52.520Z,41.73
2023-03-14T08:42:54.683Z,41.56
2023-03-14T08:43:56.796Z,41.17
2023-03-14T08:44:58.772Z,40.27
2023-03-14T08:46:01.980Z,40.84
2023-03-14T08:47:03.989Z,40.24
2023-03-14T08:48:06.628Z,40.81
2023-03-14T08:49:08.435Z,39.95
2023-03-14T08:50:14.655Z,39.58
2023-03-14T08:51:17.830Z,40.26
2023-03-14T08:52:19.688Z,40.61
2023-03-14T08:53:21.553Z,38.95
2023-03-14T08:54:23.476Z,39.91
2023-03-14T08:55:25.313Z,38.67
2023-03-14T08:56:27.073Z,38.05
2023-03-14T08:57:28.870Z,38.65
2023-03-14T08:58:30.689Z,37.67
2023-03-14T08:59:32.450Z,37.40
2023-03-14T09:00:34.268Z,38.17
2023-03-14T09:01:36.119Z,36.52
2023-03-14T09:02:38.150Z,36.17
2023-03-14T09:03:40.264Z,36.93
2023-03-14T09:04:42.087Z,37.19
2023-03-14T09:05:43.861Z,36.21
2023-03-14T09:06:45.614Z,37.18
2023-03-14T09:07:47.452Z,35.81
2023-03-14T09:08:49.335Z,36.04
2023-03-14T09:09:51.145Z,35.67
2023-03-14T09:10:52.977Z,35.76
2023-03-14T09:11:54.792Z,35.73
2023-03-14T09:12:56.594Z,36.05
2023-03-14T09:13:58.555Z,35.57
2023-03-14T09:15:00.562Z,35.64
2023-03-14T09:16:02.321Z,34.65
2023-03-14T09:17:04.625Z,35.50
2023-03-14T09:18:06.387Z,34.27
2023-03-14T09:19:08.252Z,35.73
2023-03-14T09:20:12.754Z,34.54
2023-03-14T09:21:14.575Z,34.45
2023-03-14T09:22:16.424Z,34.51
2023-03-14T09:23:18.371Z,34.20
2023-03-14T09:24:20.158Z,34.52
2023-03-14T09:25:22.159Z,33.88
2023-03-14T09:26:23.884Z,33.87
2023-03-14T09:27:25.607Z,34.56
2023-03-14T09:28:27.993Z,35.39
2023-03-14T09:29:30.082Z,33.13
2023-03-14T09:30:31.858Z,33.04
2023-03-14T09:31:33.697Z,33.21
2023-03-14T09:32:35.625Z,33.81
2023-03-14T09:33:38.575Z,33.50
2023-03-14T09:34:40.340Z,33.51
2023-03-14T09:35:42.175Z,33.91
2023-03-14T09:36:44.123Z,33.30
2023-03-14T09:37:45.975Z,32.93
2023-03-14T09:38:48.044Z,32.68
2023-03-14T09:39:49.882Z,32.92
2023-03-14T09:40:51.946Z,32.83
2023-03-14T09:41:56.521Z,33.23
2023-03-14T09:42:58.509Z,32.51
2023-03-14T09:44:09.747Z,33.74
2023-03-14T09:45:24.515Z,34.94
2023-03-14T09:46:26.330Z,33.35
2023-03-14T09:47:28.958Z,32.57
2023-03-14T09:48:33.831Z,33.04
2023-03-14T09:49:40.314Z,32.41
2023-03-14T09:50:46.022Z,33.27
2023-03-14T09:51:50.906Z,31.90
2023-03-14T09:53:00.498Z,32.00
2023-03-14T09:54:02.796Z,31.84
2023-03-14T09:55:07.845Z,31.79
2023-03-14T09:56:34.863Z,32.50
2023-03-14T09:57:37.484Z,33.17
2023-03-14T09:58:43.558Z,31.63
2023-03-14T09:59:50.090Z,32.99
2023-03-14T10:00:56.475Z,32.28
2023-03-14T10:02:21.170Z,31.42
2023-03-14T10:03:36.078Z,30.98
2023-03-14T10:04:39.649Z,31.24
2023-03-14T10:05:42.905Z,31.60
2023-03-14T10:06:44.673Z,31.69
2023-03-14T10:07:46.540Z,31.56
2023-03-14T10:08:48.344Z,31.34
2023-03-14T10:09:52.501Z,31.88
2023-03-14T10:10:55.898Z,32.12
2023-03-14T10:12:01.865Z,31.94
2023-03-14T10:13:15.304Z,32.01
2023-03-14T10:14:45.254Z,31.37
2023-03-14T10:16:00.258Z,31.88
2023-03-14T10:17:10.520Z,30.88
2023-03-14T10:18:13.881Z,31.68
2023-03-14T10:19:17.722Z,30.09
2023-03-14T10:20:38.240Z,29.92
2023-03-14T10:21:42.498Z,30.99
2023-03-14T10:22:44.559Z,31.02
2023-03-14T10:23:48.512Z,31.00
2023-03-14T10:24:55.860Z,31.39
2023-03-14T10:26:14.770Z,29.51
2023-03-14T10:27:23.017Z,29.50
2023-03-14T10:28:30.447Z,29.58
2023-03-14T10:29:34.197Z,29.21
2023-03-14T10:30:46.748Z,29.21
2023-03-14T10:31:55.970Z,29.71
2023-03-14T10:32:58.039Z,29.47
2023-03-14T10:34:05.988Z,30.62
2023-03-14T10:35:16.785Z,29.16
2023-03-14T10:36:28.428Z,28.06
2023-03-14T10:37:30.372Z,28.81
2023-03-14T10:38:37.792Z,29.94
2023-03-14T10:39:50.196Z,29.35
2023-03-14T10:40:54.544Z,29.57
2023-03-14T10:42:04.750Z,29.63
2023-03-14T10:43:14.208Z,29.65
2023-03-14T10:44:20.953Z,29.50
2023-03-14T10:45:32.150Z,30.42
2023-03-14T10:46:34.046Z,29.87
2023-03-14T10:47:35.952Z,30.14
2023-03-14T10:48:39.667Z,29.51
2023-03-14T10:49:41.413Z,30.55
2023-03-14T10:50:50.628Z,31.07
2023-03-14T10:51:52.441Z,28.88
2023-03-14T10:53:03.637Z,28.38
2023-03-14T10:54:20.915Z,27.52
2023-03-14T10:55:25.588Z,28.32
2023-03-14T10:56:34.233Z,28.73
2023-03-14T10:57:43.136Z,29.13
2023-03-14T10:58:47.855Z,28.60
2023-03-14T10:59:49.714Z,28.53
2023-03-14T11:01:30.102Z,29.33
2023-03-14T11:02:59.582Z,28.90
2023-03-14T11:04:20.299Z,29.30
2023-03-14T11:05:36.976Z,29.53
2023-03-14T11:06:56.920Z,29.44
2023-03-14T11:08:10.606Z,30.29
2023-03-14T11:09:20.017Z,30.34
2023-03-14T11:10:35.092Z,29.90
2023-03-14T11:11:38.293Z,29.38
2023-03-14T11:12:48.298Z,29.28
2023-03-14T11:14:08.338Z,30.54
2023-03-14T11:15:46.890Z,30.91
2023-03-14T11:17:11.263Z,33.09
2023-03-14T11:18:50.736Z,30.11
2023-03-14T11:20:01.633Z,31.81
2023-03-14T11:21:33.524Z,30.71
2023-03-14T11:22:47.742Z,28.71
2023-03-14T11:23:58.705Z,28.06
2023-03-14T11:25:23.780Z,29.20
2023-03-14T11:26:25.467Z,28.27
2023-03-14T11:27:44.243Z,28.51
2023-03-14T11:29:24.514Z,29.92
2023-03-14T11:30:51.981Z,28.57
2023-03-14T11:31:57.276Z,27.44
2023-03-14T11:33:22.063Z,27.19
2023-03-14T11:34:34.076Z,27.53
2023-03-14T11:35:59.112Z,27.21
2023-03-14T11:37:05.971Z,27.07
2023-03-14T11:38:35.223Z,27.13
2023-03-14T11:39:48.319Z,27.85
2023-03-14T11:40:52.551Z,28.05
2023-03-14T11:41:55.201Z,28.70
2023-03-14T11:43:30.535Z,27.52
2023-03-14T11:44:38.344Z,26.55
2023-03-14T11:45:43.340Z,26.12
2023-03-14T11:46:50.474Z,27.29
2023-03-14T11:48:17.705Z,26.30
2023-03-14T11:49:46.954Z,26.32
2023-03-14T11:50:54.230Z,26.37
2023-03-14T11:52:00.125Z,26.20
2023-03-14T11:53:15.255Z,26.89
2023-03-14T11:54:31.760Z,26.08
2023-03-14T11:55:38.494Z,25.96
2023-03-14T11:57:00.816Z,26.90
2023-03-14T11:58:20.071Z,26.58
2023-03-14T11:59:46.846Z,25.04
2023-03-14T12:00:51.715Z,25.76
2023-03-14T12:02:33.476Z,24.52
2023-03-14T12:03:44.415Z,24.64
2023-03-14T12:05:12.680Z,24.78
2023-03-14T12:06:29.242Z,25.36
2023-03-14T12:07:56.859Z,25.17
2023-03-14T12:09:06.657Z,24.84
2023-03-14T12:10:08.560Z,25.43
2023-03-14T12:11:16.452Z,26.14
2023-03-14T12:12:23.563Z,25.76
2023-03-14T12:13:37.687Z,25.13
2023-03-14T12:14:47.945Z,25.77
2023-03-14T12:15:57.506Z,25.62
2023-03-14T12:17:07.481Z,24.85
2023-03-14T12:18:39.671Z,26.40
2023-03-14T12:19:42.380Z,25.41
2023-03-14T12:20:54.508Z,26.27
2023-03-14T12:22:01.656Z,24.63
2023-03-14T12:23:06.608Z,24.60
2023-03-14T12:24:25.382Z,25.30
2023-03-14T12:25:30.810Z,24.35
2023-03-14T12:26:53.190Z,23.88
2023-03-14T12:27:57.937Z,24.31
2023-03-14T12:29:05.790Z,24.69
2023-03-14T12:30:18.819Z,24.72
2023-03-14T12:31:32.505Z,24.46
2023-03-14T12:32:34.496Z,24.34
2023-03-14T12:33:36.397Z,23.58
2023-03-14T12:34:43.911Z,24.69
2023-03-14T12:35:54.222Z,25.55
2023-03-14T12:37:07.476Z,24.88
2023-03-14T12:38:36.639Z,24.37
2023-03-14T12:40:07.260Z,24.06
2023-03-14T12:41:18.334Z,24.51
2023-03-14T12:42:44.565Z,24.54
2023-03-14T12:43:47.669Z,24.21
2023-03-14T12:44:51.627Z,24.25
2023-03-14T12:46:10.268Z,24.54
2023-03-14T12:47:18.071Z,24.53
2023-03-14T12:48:27.421Z,23.65
2023-03-14T12:49:33.834Z,23.03
2023-03-14T12:50:43.213Z,23.36
2023-03-14T12:51:45.265Z,23.61
2023-03-14T12:52:52.940Z,24.12
2023-03-14T12:54:19.327Z,24.05
2023-03-14T12:55:30.182Z,24.43
2023-03-14T12:56:57.956Z,24.23
2023-03-14T12:58:29.022Z,24.90
2023-03-14T12:59:49.023Z,25.36
2023-03-14T13:01:06.332Z,24.58
2023-03-14T13:02:07.985Z,24.66
2023-03-14T13:03:21.750Z,24.35
2023-03-14T13:04:40.202Z,25.09
2023-03-14T13:06:02.573Z,23.28
2023-03-14T13:07:05.342Z,23.41
2023-03-14T13:08:10.616Z,23.53
2023-03-14T13:09:36.785Z,22.40
2023-03-14T13:10:49.144Z,23.27
2023-03-14T13:11:51.148Z,23.15
2023-03-14T13:13:03.588Z,22.26
2023-03-14T13:14:11.410Z,21.69
2023-03-14T13:15:28.436Z,21.97
2023-03-14T13:16:30.569Z,23.30
2023-03-14T13:17:36.935Z,24.33
2023-03-14T13:19:12.983Z,22.38
2023-03-14T13:20:24.274Z,22.42
2023-03-14T13:21:29.423Z,23.54
2023-03-14T13:22:35.085Z,22.66
2023-03-14T13:23:39.092Z,22.18
2023-03-14T13:24:41.243Z,22.11
2023-03-14T13:25:43.356Z,22.35
2023-03-14T13:26:46.192Z,22.72
2023-03-14T13:27:48.531Z,23.02
2023-03-14T13:28:50.500Z,22.68
2023-03-14T13:29:52.945Z,23.43
2023-03-14T13:31:00.410Z,23.22
2023-03-14T13:32:20.728Z,23.16
2023-03-14T13:33:24.404Z,23.16
2023-03-14T13:34:32.027Z,23.35
2023-03-14T13:35:46.420Z,23.67
2023-03-14T13:36:48.411Z,23.77
2023-03-14T13:38:09.875Z,23.82
2023-03-14T13:39:20.755Z,24.15
2023-03-14T13:40:33.770Z,23.75
2023-03-14T13:41:35.548Z,23.57
2023-03-14T13:42:37.945Z,24.50
2023-03-14T13:43:45.309Z,23.95
2023-03-14T13:44:47.699Z,22.89
2023-03-14T13:46:02.350Z,23.43
2023-03-14T13:47:07.271Z,23.04
2023-03-14T13:48:13.658Z,23.12
2023-03-14T13:49:26.263Z,24.47
2023-03-14T13:50:28.867Z,23.82
2023-03-14T13:51:32.107Z,23.44
2023-03-14T13:52:38.781Z,23.86
2023-03-14T13:53:49.186Z,23.90
2023-03-14T13:54:55.234Z,23.94
2023-03-14T13:55:57.135Z,24.30
2023-03-14T13:57:07.581Z,24.15
2023-03-14T13:58:30.319Z,23.75
2023-03-14T13:59:34.206Z,24.10